Time;durP1;ratioP1;P1;durP2;ratioP2;P2;SDS_P1;SDS_P2;PMS_P1;PMS_P2;Temp;Humidity;BMP_temperature;BMP_pressure;BME280_temperature;BME280_humidity;BME280_pressure;Samples;Min_cycle;Max_cycle;Signal;HPM_P1;HPM_P2
2021/08/01 00:02:02;;;;;;;10.03;3.70;;;;;;;20.97;50.92;97253.31;8407654;28;20432;-64
2021/08/01 00:06:15;;;;;;;7.17;3.83;;;;;;;21.02;51.05;97234.47;8388313;28;20203;-64
2021/08/01 00:10:25;;;;;;;11.30;4.07;;;;;;;21.02;50.88;97239.72;8387975;28;20554;-64
2021/08/01 00:14:32;;;;;;;8.03;3.90;;;;;;;20.91;51.29;97247.84;8388485;28;20310;-63
2021/08/01 00:18:39;;;;;;;10.53;4.33;;;;;;;20.92;51.82;97245.03;8387882;28;20210;-63
2021/08/01 00:22:50;;;;;;;9.43;3.93;;;;;;;20.99;51.53;97243.47;8388544;28;20251;-63
2021/08/01 00:27:03;;;;;;;11.00;3.97;;;;;;;20.99;51.25;97246.09;8387711;28;20504;-63
2021/08/01 00:31:11;;;;;;;6.37;4.23;;;;;;;20.97;51.47;97239.34;8388169;28;20223;-63
2021/08/01 00:35:20;;;;;;;9.77;4.43;;;;;;;21.05;51.14;97224.41;8387858;28;20232;-63
2021/08/01 00:39:34;;;;;;;6.37;4.30;;;;;;;21.03;51.51;97230.81;8387649;28;20204;-64
2021/08/01 00:43:54;;;;;;;7.87;4.30;;;;;;;20.93;51.66;97223.00;8387460;28;20201;-64
2021/08/01 00:48:06;;;;;;;9.60;4.50;;;;;;;20.88;51.82;97214.75;8387557;28;20238;-64
2021/08/01 00:52:25;;;;;;;7.73;4.00;;;;;;;20.78;52.36;97217.44;8406281;28;20443;-64
2021/08/01 00:57:02;;;;;;;7.67;4.13;;;;;;;20.80;52.83;97217.31;8419856;28;20200;-64
2021/08/01 01:01:18;;;;;;;8.87;4.50;;;;;;;20.74;53.26;97223.19;8419188;28;20235;-64
2021/08/01 01:05:46;;;;;;;9.50;4.50;;;;;;;20.68;53.44;97229.88;8419367;28;20209;-64
2021/08/01 01:10:06;;;;;;;10.60;4.53;;;;;;;20.76;53.06;97227.31;8420073;28;20231;-64
2021/08/01 01:14:26;;;;;;;8.60;4.33;;;;;;;20.80;52.75;97226.03;8419840;28;20246;-64
2021/08/01 01:18:55;;;;;;;10.17;4.10;;;;;;;20.85;52.61;97230.84;8415376;28;20398;-64
2021/08/01 01:23:41;;;;;;;10.40;4.43;;;;;;;20.86;52.62;97228.03;8419388;28;20373;-64
2021/08/01 01:28:09;;;;;;;9.93;4.10;;;;;;;20.80;52.97;97228.66;8419308;28;20225;-64
2021/08/01 01:32:43;;;;;;;7.00;4.10;;;;;;;20.85;52.32;97234.31;8416850;28;20519;-64
2021/08/01 01:37:03;;;;;;;5.97;4.33;;;;;;;20.77;52.24;97238.66;8418880;28;20380;-64
2021/08/01 01:41:26;;;;;;;5.33;3.93;;;;;;;20.80;51.88;97249.69;8419117;28;20544;-64
2021/08/01 01:45:46;;;;;;;7.40;4.07;;;;;;;20.84;51.05;97248.41;8418621;28;20199;-64
2021/08/01 01:50:01;;;;;;;9.43;4.27;;;;;;;20.51;52.04;97247.25;8418128;28;20230;-65
2021/08/01 01:54:25;;;;;;;7.67;3.80;;;;;;;20.53;52.21;97255.81;8418454;28;20220;-64
2021/08/01 01:58:56;;;;;;;11.87;4.00;;;;;;;20.70;52.27;97255.03;8418524;28;20206;-64
2021/08/01 02:03:21;;;;;;;7.27;3.40;;;;;;;20.75;51.92;97251.13;8418148;28;20301;-64
2021/08/01 02:07:45;;;;;;;9.43;3.87;;;;;;;20.65;52.20;97249.38;8417766;28;20210;-64
2021/08/01 02:12:07;;;;;;;7.80;3.70;;;;;;;20.70;53.67;97241.06;8416879;28;20258;-64
2021/08/01 02:16:29;;;;;;;8.23;3.57;;;;;;;20.63;53.62;97235.56;8418014;28;20199;-63
2021/08/01 02:20:54;;;;;;;8.87;4.13;;;;;;;20.66;54.47;97240.53;8417660;28;20210;-64
2021/08/01 02:25:20;;;;;;;8.47;3.43;;;;;;;20.66;53.50;97237.06;8416999;28;20199;-64
2021/08/01 02:29:43;;;;;;;9.10;3.63;;;;;;;20.28;54.08;97228.41;8417605;28;20393;-64
2021/08/01 02:33:57;;;;;;;10.07;3.50;;;;;;;20.55;54.96;97224.09;8416288;28;20199;-64
2021/08/01 02:38:08;;;;;;;6.17;3.80;;;;;;;20.54;55.92;97225.06;8416618;28;20309;-63
2021/08/01 02:42:38;;;;;;;9.00;3.70;;;;;;;20.51;55.90;97224.41;8417400;28;20211;-64
2021/08/01 02:46:57;;;;;;;7.13;3.73;;;;;;;20.51;56.29;97232.28;8416844;28;20203;-64
2021/08/01 02:51:27;;;;;;;9.33;3.77;;;;;;;20.56;56.91;97233.63;8414791;28;20231;-63
2021/08/01 02:55:52;;;;;;;6.83;3.83;;;;;;;20.44;56.40;97231.22;8415916;28;20199;-63
2021/08/01 03:00:12;;;;;;;7.57;3.97;;;;;;;20.25;56.83;97229.53;8416807;28;20211;-64
2021/08/01 03:04:31;;;;;;;7.37;3.80;;;;;;;20.41;55.92;97234.16;8416899;28;20215;-63
2021/08/01 03:08:43;;;;;;;6.60;4.00;;;;;;;20.42;56.96;97227.91;8416507;28;20199;-64
2021/08/01 03:13:08;;;;;;;9.23;3.60;;;;;;;20.44;57.46;97233.03;8416089;28;20199;-64
2021/08/01 03:17:38;;;;;;;7.93;3.73;;;;;;;20.36;57.31;97238.19;8415241;28;20206;-64
2021/08/01 03:22:00;;;;;;;6.03;3.90;;;;;;;20.40;56.97;97232.50;8415824;28;20203;-64
2021/08/01 03:26:20;;;;;;;10.03;3.90;;;;;;;20.34;58.19;97234.91;8415439;28;20216;-63
2021/08/01 03:30:35;;;;;;;8.83;3.97;;;;;;;20.40;59.06;97234.31;8414132;28;20239;-64
2021/08/01 03:34:49;;;;;;;10.20;4.17;;;;;;;20.37;58.84;97231.94;8415981;28;20207;-64
2021/08/01 03:39:12;;;;;;;13.77;4.27;;;;;;;20.42;59.14;97237.59;8416140;28;20214;-64
2021/08/01 03:43:35;;;;;;;8.50;4.07;;;;;;;20.35;59.86;97229.47;8411344;28;20199;-64
2021/08/01 03:47:59;;;;;;;6.40;3.93;;;;;;;20.46;59.63;97213.47;8415592;28;20206;-64
2021/08/01 03:52:13;;;;;;;9.57;4.30;;;;;;;20.38;59.71;97212.59;8415368;28;20236;-64
2021/08/01 03:56:46;;;;;;;9.50;3.97;;;;;;;20.39;59.85;97208.97;8415306;28;20199;-64
2021/08/01 04:00:53;;;;;;;6.87;3.87;;;;;;;20.41;59.20;97210.50;8415562;28;20241;-64
2021/08/01 04:05:20;;;;;;;8.27;4.47;;;;;;;20.19;59.79;97208.25;8414725;28;20207;-64
2021/08/01 04:09:41;;;;;;;10.03;4.10;;;;;;;20.27;60.25;97218.88;8415269;28;20233;-64
2021/08/01 04:13:54;;;;;;;9.47;4.50;;;;;;;20.18;60.19;97217.13;8414413;28;20370;-64
2021/08/01 04:18:05;;;;;;;15.57;4.30;;;;;;;20.12;60.45;97215.91;8415337;28;20245;-64
2021/08/01 04:22:25;;;;;;;7.57;4.40;;;;;;;20.12;60.83;97223.78;8414562;28;20388;-64
2021/08/01 04:26:34;;;;;;;10.20;4.80;;;;;;;20.20;60.90;97238.81;8415253;28;20399;-64
2021/08/01 04:30:43;;;;;;;5.83;4.30;;;;;;;20.27;60.67;97238.09;8420703;28;20442;-65
2021/08/01 04:34:50;;;;;;;9.83;4.50;;;;;;;20.18;60.83;97240.78;8420833;28;20199;-65
2021/08/01 04:38:59;;;;;;;8.63;3.87;;;;;;;20.17;60.32;97239.94;8420485;28;20219;-65
2021/08/01 04:43:07;;;;;;;5.50;4.13;;;;;;;20.14;60.73;97247.28;8421322;28;20203;-65
2021/08/01 04:47:14;;;;;;;5.27;4.10;;;;;;;20.02;60.58;97246.66;8420399;28;20199;-65
2021/08/01 04:51:33;;;;;;;9.67;4.50;;;;;;;20.10;59.82;97249.38;8408693;28;20235;-65
2021/08/01 04:55:50;;;;;;;8.97;4.20;;;;;;;20.13;59.71;97249.09;8384528;28;20199;-65
2021/08/01 05:00:05;;;;;;;6.77;4.17;;;;;;;20.17;59.75;97252.28;8386539;28;20524;-65
2021/08/01 05:04:19;;;;;;;8.53;4.77;;;;;;;20.12;60.26;97252.69;8386868;28;20232;-65
2021/08/01 05:08:32;;;;;;;7.80;4.73;;;;;;;20.14;59.78;97249.94;8387052;28;20208;-65
2021/08/01 05:12:49;;;;;;;7.83;4.53;;;;;;;20.19;60.14;97252.94;8386117;28;20266;-65
2021/08/01 05:17:04;;;;;;;10.27;4.17;;;;;;;20.20;60.31;97254.59;8384820;28;20223;-65
2021/08/01 05:21:25;;;;;;;7.03;4.53;;;;;;;20.18;60.32;97257.41;8411765;28;20206;-65
2021/08/01 05:25:51;;;;;;;8.43;4.50;;;;;;;20.13;60.27;97259.63;8419086;28;20199;-65
2021/08/01 05:29:58;;;;;;;7.70;4.10;;;;;;;20.05;60.42;97254.28;8418655;28;20224;-65
2021/08/01 05:34:03;;;;;;;5.80;4.10;;;;;;;20.06;59.83;97264.63;8419545;28;20210;-65
2021/08/01 05:38:17;;;;;;;10.50;4.33;;;;;;;19.98;59.78;97266.31;8419262;28;20200;-65
2021/08/01 05:42:35;;;;;;;9.43;3.97;;;;;;;20.01;59.31;97266.00;8418595;28;20207;-65
2021/08/01 05:46:50;;;;;;;6.37;3.90;;;;;;;19.97;59.20;97262.88;8418479;28;20199;-66
2021/08/01 05:51:02;;;;;;;6.13;4.30;;;;;;;19.98;60.02;97264.50;8417546;28;20219;-64
2021/08/01 05:55:21;;;;;;;9.00;4.50;;;;;;;19.98;59.48;97268.94;8419002;28;20223;-64
2021/08/01 05:59:39;;;;;;;10.20;3.80;;;;;;;19.91;59.71;97266.91;8418575;28;20209;-64
2021/08/01 06:03:58;;;;;;;7.40;4.40;;;;;;;19.90;59.58;97261.78;8417952;28;20238;-64
2021/08/01 06:08:04;;;;;;;5.53;3.87;;;;;;;19.91;59.55;97260.81;8415808;28;20258;-64
2021/08/01 06:12:17;;;;;;;8.20;3.60;;;;;;;19.86;59.70;97266.50;8418081;28;20293;-64
2021/08/01 06:16:27;;;;;;;9.17;4.03;;;;;;;19.90;60.04;97273.13;8418079;28;20203;-64
2021/08/01 06:20:46;;;;;;;14.87;3.60;;;;;;;20.48;60.22;97285.16;8417121;28;20225;-65
2021/08/01 06:25:01;;;;;;;8.33;3.10;;;;;;;20.74;58.91;97284.50;8417958;28;20211;-65
2021/08/01 06:29:08;;;;;;;6.17;3.33;;;;;;;20.83;58.73;97280.16;8417517;28;20199;-65
2021/08/01 06:33:18;;;;;;;6.37;3.53;;;;;;;20.43;58.14;97289.25;8417199;28;20325;-64
2021/08/01 06:37:26;;;;;;;6.40;3.70;;;;;;;20.39;59.79;97287.84;8417388;28;20234;-64
2021/08/01 06:41:30;;;;;;;8.40;3.80;;;;;;;20.35;59.59;97284.69;8417465;28;20206;-64
2021/08/01 06:45:37;;;;;;;10.03;4.23;;;;;;;20.33;59.69;97276.13;8417256;28;20200;-64
2021/08/01 06:49:48;;;;;;;10.37;4.13;;;;;;;20.34;59.40;97284.84;8417087;28;20205;-64
2021/08/01 06:54:16;;;;;;;6.93;4.17;;;;;;;20.34;59.12;97287.47;8383744;28;20226;-64
2021/08/01 06:58:25;;;;;;;8.10;4.40;;;;;;;20.35;59.80;97291.75;8383140;28;20576;-64
2021/08/01 07:02:34;;;;;;;9.67;4.00;;;;;;;20.40;59.46;97287.72;8383108;28;20263;-64
2021/08/01 07:06:40;;;;;;;8.37;4.17;;;;;;;20.35;59.37;97294.38;8396343;28;20220;-64
2021/08/01 07:10:50;;;;;;;7.50;4.17;;;;;;;20.38;59.70;97294.09;8398937;28;20215;-64
2021/08/01 07:14:55;;;;;;;7.20;4.37;;;;;;;20.39;61.13;97303.63;8383019;28;20217;-65
2021/08/01 07:19:02;;;;;;;7.13;4.50;;;;;;;20.40;60.56;97295.59;8387300;28;20201;-64
2021/08/01 07:23:09;;;;;;;8.00;4.47;;;;;;;20.40;61.05;97292.97;8405382;28;20199;-64
2021/08/01 07:27:17;;;;;;;7.00;4.43;;;;;;;20.54;60.23;97296.09;8407178;28;20241;-64
2021/08/01 07:31:20;;;;;;;8.90;4.40;;;;;;;20.58;59.95;97290.41;8413256;28;20227;-64
2021/08/01 07:35:28;;;;;;;7.63;4.33;;;;;;;20.61;59.54;97295.38;8389631;28;20196;-64
2021/08/01 07:39:31;;;;;;;6.50;4.50;;;;;;;20.57;59.49;97296.63;8406898;28;20195;-64
2021/08/01 07:43:42;;;;;;;6.47;4.60;;;;;;;20.66;60.74;97297.59;8416023;28;20210;-64
2021/08/01 07:47:58;;;;;;;7.27;5.10;;;;;;;20.51;61.34;97305.09;8416134;28;20420;-64
2021/08/01 07:52:13;;;;;;;5.93;4.70;;;;;;;20.57;61.21;97299.25;8415672;28;20526;-65
2021/08/01 07:56:27;;;;;;;7.63;5.03;;;;;;;20.70;61.43;97307.66;8415020;28;20513;-65
2021/08/01 08:00:35;;;;;;;9.13;4.53;;;;;;;20.67;60.26;97304.47;8415048;28;20203;-64
2021/08/01 08:04:41;;;;;;;8.47;4.03;;;;;;;20.65;60.88;97304.63;8353656;28;20271;-64
2021/08/01 08:08:55;;;;;;;5.37;3.80;;;;;;;20.84;60.58;97310.75;8355826;28;20200;-64
2021/08/01 08:13:17;;;;;;;6.83;3.70;;;;;;;20.95;59.90;97309.72;8353782;28;20235;-65
2021/08/01 08:17:33;;;;;;;5.57;3.60;;;;;;;20.97;59.67;97315.66;8341763;28;20504;-64
2021/08/01 08:21:39;;;;;;;6.47;3.87;;;;;;;21.17;60.16;97318.97;8337868;28;20530;-64
2021/08/01 08:25:54;;;;;;;6.67;4.03;;;;;;;21.10;60.12;97316.13;8334590;28;20206;-64
2021/08/01 08:29:57;;;;;;;9.67;4.37;;;;;;;21.48;59.31;97315.00;8337454;28;20196;-64
2021/08/01 08:34:05;;;;;;;5.67;3.77;;;;;;;21.69;58.77;97315.66;8337025;28;20228;-64
2021/08/01 08:38:10;;;;;;;7.37;3.73;;;;;;;21.72;58.47;97315.31;8337497;28;20531;-64
2021/08/01 08:42:19;;;;;;;6.73;3.70;;;;;;;21.59;58.81;97326.25;8337522;28;20501;-64
2021/08/01 08:46:25;;;;;;;6.27;3.20;;;;;;;21.53;58.20;97335.59;8333215;28;20194;-68
2021/08/01 08:50:32;;;;;;;8.27;2.73;;;;;;;21.98;56.20;97326.69;8336463;28;20197;-65
2021/08/01 08:54:40;;;;;;;3.87;2.70;;;;;;;22.37;55.14;97326.31;8323065;28;20267;-65
2021/08/01 08:58:53;;;;;;;6.93;2.87;;;;;;;22.39;55.61;97337.53;8329207;28;20200;-66
2021/08/01 09:03:02;;;;;;;7.00;2.43;;;;;;;22.81;54.36;97330.59;8367351;28;20538;-65
2021/08/01 09:07:05;;;;;;;5.40;2.70;;;;;;;22.89;53.51;97335.88;8407437;28;20195;-65
2021/08/01 09:11:08;;;;;;;8.63;2.87;;;;;;;23.08;53.23;97340.06;8405363;28;20214;-65
2021/08/01 09:15:18;;;;;;;5.90;2.87;;;;;;;23.34;52.47;97336.47;8401337;28;20196;-65
2021/08/01 09:19:29;;;;;;;8.70;3.10;;;;;;;23.44;52.16;97339.78;8400977;28;20482;-65
2021/08/01 09:23:36;;;;;;;7.47;2.87;;;;;;;23.31;52.59;97335.00;8401919;28;20262;-65
2021/08/01 09:27:42;;;;;;;5.87;2.43;;;;;;;24.14;50.05;97323.41;8401523;28;20198;-65
2021/08/01 09:31:57;;;;;;;4.80;2.43;;;;;;;23.87;50.45;97321.13;8401899;28;20215;-65
2021/08/01 09:36:12;;;;;;;5.43;2.60;;;;;;;24.08;48.22;97320.59;8401906;28;20217;-65
2021/08/01 09:40:16;;;;;;;2.90;2.10;;;;;;;24.46;49.20;97328.75;8390249;28;20226;-65
2021/08/01 09:44:22;;;;;;;3.97;2.10;;;;;;;24.65;47.04;97316.94;8386888;28;20210;-65
2021/08/01 09:48:35;;;;;;;3.83;2.27;;;;;;;23.95;49.25;97326.38;8385012;28;20319;-65
2021/08/01 09:52:43;;;;;;;5.83;2.10;;;;;;;23.51;49.35;97338.13;8389921;28;20600;-66
2021/08/01 09:56:57;;;;;;;5.13;2.20;;;;;;;23.38;50.10;97333.34;8389314;28;20751;-66
2021/08/01 10:01:04;;;;;;;5.00;2.20;;;;;;;23.21;50.55;97334.34;8391052;28;20547;-66
2021/08/01 10:05:25;;;;;;;4.40;2.40;;;;;;;22.84;51.99;97341.63;8388188;28;20206;-66
2021/08/01 10:09:35;;;;;;;5.57;2.03;;;;;;;22.62;52.56;97337.78;8389182;28;20210;-65
2021/08/01 10:13:46;;;;;;;6.37;2.60;;;;;;;22.64;52.26;97346.34;8391339;28;20553;-66
2021/08/01 10:17:52;;;;;;;4.63;2.50;;;;;;;22.73;52.46;97336.66;8390504;28;21510;-66
2021/08/01 10:22:02;;;;;;;4.30;2.10;;;;;;;22.75;52.95;97344.41;8389924;28;20241;-65
2021/08/01 10:26:09;;;;;;;7.70;2.67;;;;;;;22.73;52.33;97343.72;8389306;28;20211;-66
2021/08/01 10:30:21;;;;;;;8.30;2.47;;;;;;;22.70;52.30;97344.06;8389504;28;20194;-66
2021/08/01 10:34:38;;;;;;;10.00;2.47;;;;;;;22.71;52.25;97340.44;8392065;28;20606;-65
2021/08/01 10:38:43;;;;;;;5.13;2.50;;;;;;;22.71;52.58;97343.88;8393122;28;20197;-64
2021/08/01 10:42:50;;;;;;;5.50;2.23;;;;;;;22.71;52.75;97333.34;8392667;28;20207;-65
2021/08/01 10:46:55;;;;;;;13.27;2.93;;;;;;;22.82;52.70;97340.97;8391519;28;20202;-66
2021/08/01 10:51:02;;;;;;;8.23;2.77;;;;;;;22.73;52.96;97338.47;8387000;28;20712;-65
2021/08/01 10:55:08;;;;;;;4.87;3.00;;;;;;;22.62;53.00;97334.31;8387898;28;20310;-65
2021/08/01 11:00:00;;;;;;;6.03;2.83;;;;;;;22.83;52.48;97333.88;8390514;28;20554;-66
2021/08/01 11:04:32;;;;;;;4.83;2.70;;;;;;;22.83;52.73;97333.88;8387231;28;20244;-66
2021/08/01 11:09:10;;;;;;;8.57;2.40;;;;;;;22.90;52.21;97324.31;8373853;28;20200;-65
2021/08/01 11:13:38;;;;;;;8.43;2.53;;;;;;;23.12;51.51;97319.47;8389480;28;20257;-64
2021/08/01 11:18:12;;;;;;;6.37;2.33;;;;;;;23.13;50.89;97327.22;8389810;28;20207;-65
2021/08/01 11:23:01;;;;;;;5.97;2.30;;;;;;;23.18;49.13;97324.09;8389591;28;20201;-65
2021/08/01 11:27:11;;;;;;;3.50;2.00;;;;;;;23.46;49.13;97319.31;8380599;28;20215;-65
2021/08/01 11:31:25;;;;;;;3.30;2.10;;;;;;;23.59;48.57;97322.28;8392532;28;20199;-65
2021/08/01 11:35:51;;;;;;;4.83;2.20;;;;;;;23.53;48.36;97314.19;8387803;28;20394;-65
2021/08/01 11:40:06;;;;;;;10.03;2.50;;;;;;;23.79;47.99;97317.50;8379770;28;21311;-66
2021/08/01 11:44:22;;;;;;;41.60;25.07;;;;;;;23.96;47.12;97310.38;8392885;28;20210;-66
2021/08/01 11:48:28;;;;;;;6.80;3.03;;;;;;;23.61;47.16;97311.56;8387801;28;20401;-65
2021/08/01 11:52:49;;;;;;;16.43;9.60;;;;;;;24.20;44.83;97311.31;8394985;28;20253;-65
2021/08/01 11:57:04;;;;;;;14.53;8.07;;;;;;;24.90;45.42;97296.44;8397335;28;20203;-66
2021/08/01 12:01:19;;;;;;;7.57;3.80;;;;;;;24.85;45.12;97299.63;8401445;28;20345;-66
2021/08/01 12:05:48;;;;;;;4.77;2.10;;;;;;;24.19;45.68;97291.94;8384178;28;20203;-65
2021/08/01 12:10:20;;;;;;;7.97;2.80;;;;;;;25.08;44.50;97282.94;8382206;28;20225;-66
2021/08/01 12:14:42;;;;;;;10.60;2.50;;;;;;;24.12;47.03;97284.88;8388009;28;20222;-64
2021/08/01 12:19:14;;;;;;;8.03;2.30;;;;;;;23.91;47.70;97283.63;8414409;28;20256;-76
2021/08/01 12:23:45;;;;;;;6.80;2.87;;;;;;;23.97;46.60;97282.94;8361476;23;20233;-85
2021/08/01 12:27:55;;;;;;;10.63;2.47;;;;;;;24.06;47.01;97275.78;8302298;28;20287;-86
2021/08/01 12:32:18;;;;;;;5.23;2.43;;;;;;;24.36;46.03;97278.66;8299559;28;20229;-85
2021/08/01 12:36:30;;;;;;;10.37;2.70;;;;;;;24.30;45.94;97266.94;8296627;28;20205;-85
2021/08/01 12:40:42;;;;;;;8.90;2.40;;;;;;;24.55;45.47;97277.47;8284277;28;20202;-85
2021/08/01 12:45:06;;;;;;;4.80;2.13;;;;;;;25.11;43.36;97267.53;8283466;28;20454;-85
2021/08/01 12:49:17;;;;;;;10.27;2.13;;;;;;;25.33;42.43;97262.41;8287065;28;20237;-84
2021/08/01 12:53:24;;;;;;;3.67;2.27;;;;;;;24.60;42.47;97256.59;8307161;28;20229;-86
2021/08/01 12:57:28;;;;;;;10.63;2.50;;;;;;;24.61;44.23;97263.53;8312834;28;20220;-84
2021/08/01 13:01:43;;;;;;;6.97;2.27;;;;;;;25.56;42.32;97265.00;8313839;28;20205;-86
2021/08/01 13:10:21;;;;;;;3.40;2.00;;;;;;;26.49;39.94;97262.84;8280177;28;20197;-85
2021/08/01 13:14:37;;;;;;;2.60;2.00;;;;;;;26.54;40.38;97252.50;8272015;28;20227;-86
2021/08/01 13:18:44;;;;;;;2.57;1.90;;;;;;;26.38;39.95;97256.19;8271786;28;20198;-91
2021/08/01 13:22:58;;;;;;;3.93;2.10;;;;;;;25.77;39.46;97253.72;8272940;28;20240;-87
2021/08/01 13:27:12;;;;;;;2.37;1.80;;;;;;;25.68;39.05;97268.03;8271191;28;20197;-87
2021/08/01 13:31:18;;;;;;;5.00;2.10;;;;;;;25.59;39.60;97262.00;8271769;28;20253;-87
2021/08/01 13:35:28;;;;;;;6.90;2.20;;;;;;;24.97;40.43;97255.03;8274543;28;20230;-88
2021/08/01 13:39:53;;;;;;;5.33;2.30;;;;;;;24.77;42.39;97265.28;8267222;28;20251;-88
2021/08/01 13:44:15;;;;;;;6.27;2.50;;;;;;;24.50;42.42;97263.88;8271122;28;20204;-87
2021/08/01 13:48:28;;;;;;;4.40;2.53;;;;;;;24.50;42.38;97270.03;8271315;28;20522;-87
2021/08/01 13:52:46;;;;;;;6.27;2.40;;;;;;;25.02;42.30;97273.03;8268311;28;20225;-87
2021/08/01 13:56:58;;;;;;;4.93;2.40;;;;;;;25.27;41.66;97265.78;8270267;28;20198;-87
2021/08/01 14:01:05;;;;;;;5.23;2.40;;;;;;;25.44;41.20;97248.72;8268787;28;20223;-88
2021/08/01 14:05:15;;;;;;;5.37;2.33;;;;;;;25.67;39.45;97253.97;8269180;28;20226;-87
2021/08/01 14:09:20;;;;;;;4.93;2.57;;;;;;;25.83;40.13;97242.38;8271904;28;20392;-87
2021/08/01 14:13:29;;;;;;;3.77;2.20;;;;;;;25.43;41.09;97247.06;8274710;28;20242;-88
2021/08/01 14:17:33;;;;;;;5.27;2.30;;;;;;;25.10;42.05;97251.81;8285920;28;20214;-87
2021/08/01 14:21:41;;;;;;;3.10;2.00;;;;;;;25.02;39.78;97244.75;8275792;28;20235;-90
2021/08/01 14:25:46;;;;;;;3.63;2.13;;;;;;;24.83;40.77;97253.13;8274965;28;20214;-88
2021/08/01 14:29:49;;;;;;;5.37;2.00;;;;;;;24.89;41.28;97240.03;8274465;28;20204;-89
2021/08/01 14:33:53;;;;;;;5.87;2.13;;;;;;;24.72;41.35;97239.31;8273621;28;20221;-89
2021/08/01 14:37:58;;;;;;;4.17;2.13;;;;;;;24.55;41.32;97238.56;8271171;28;20201;-88
2021/08/01 14:42:12;;;;;;;3.93;2.00;;;;;;;24.69;41.71;97244.94;8269551;28;20260;-86
2021/08/01 14:46:18;;;;;;;6.10;2.30;;;;;;;24.44;42.50;97243.41;8276158;28;20475;-93
2021/08/01 14:50:30;;;;;;;5.00;2.30;;;;;;;24.53;42.50;97245.06;8270336;28;20527;-91
2021/08/01 14:54:38;;;;;;;3.30;2.23;;;;;;;24.53;42.55;97239.75;8274972;28;20240;-90
2021/08/01 14:58:48;;;;;;;4.43;1.83;;;;;;;24.62;42.14;97249.31;8278157;28;20371;-93
2021/08/01 15:03:28;;;;;;;2.77;2.17;;;;;;;24.74;40.62;97252.38;8268487;28;20219;-91
2021/08/01 15:07:36;;;;;;;4.97;2.63;;;;;;;24.66;40.79;97241.84;8273265;28;20509;-89
2021/08/01 15:11:51;;;;;;;3.13;2.50;;;;;;;24.59;41.36;97255.75;8272029;28;20210;-89
2021/08/01 15:16:02;;;;;;;5.33;2.50;;;;;;;24.66;40.69;97253.25;8270611;28;20546;-91
2021/08/01 15:20:09;;;;;;;9.27;2.73;;;;;;;24.55;42.69;97257.09;8271074;28;20238;-87
2021/08/01 15:24:24;;;;;;;5.17;2.60;;;;;;;24.47;41.91;97258.94;8274940;28;20226;-92
2021/08/01 15:28:33;;;;;;;5.80;2.40;;;;;;;24.16;41.08;97265.00;8271070;28;20208;-90
2021/08/01 15:32:46;;;;;;;5.67;2.27;;;;;;;24.30;41.55;97272.25;8269201;28;20198;-90
2021/08/01 15:36:51;;;;;;;9.87;2.43;;;;;;;24.32;42.66;97272.09;8270150;28;20428;-94
2021/08/01 15:41:05;;;;;;;3.50;2.13;;;;;;;24.44;42.05;97259.28;8271184;28;20201;-89
2021/08/01 15:45:11;;;;;;;3.37;2.10;;;;;;;24.50;42.67;97258.59;8273735;28;20232;-88
2021/08/01 15:49:16;;;;;;;4.63;2.40;;;;;;;24.67;42.14;97260.19;8272164;28;20200;-86
2021/08/01 15:53:25;;;;;;;3.03;1.90;;;;;;;24.46;41.11;97252.00;8279603;28;20240;-88
2021/08/01 15:57:35;;;;;;;11.40;2.27;;;;;;;24.87;41.41;97251.81;8271085;28;20202;-87
2021/08/01 16:01:43;;;;;;;4.60;2.40;;;;;;;24.54;42.24;97246.69;8278860;28;20214;-88
2021/08/01 16:05:57;;;;;;;2.90;1.90;;;;;;;24.66;40.83;97255.06;8288640;28;20228;-88
2021/08/01 16:10:03;;;;;;;3.63;2.00;;;;;;;24.23;41.99;97255.41;8289048;28;20485;-89
2021/08/01 16:14:14;;;;;;;2.73;1.80;;;;;;;24.25;41.53;97250.75;8286083;28;20225;-89
2021/08/01 16:18:18;;;;;;;2.57;1.77;;;;;;;24.16;41.72;97246.50;8285518;28;20205;-88
2021/08/01 16:22:23;;;;;;;3.43;1.70;;;;;;;23.97;42.33;97253.00;8285616;28;20436;-86
2021/08/01 16:26:30;;;;;;;5.50;1.90;;;;;;;24.29;42.56;97246.78;8292014;28;20232;-88
2021/08/01 16:30:42;;;;;;;2.90;1.90;;;;;;;24.06;42.65;97243.25;8296765;28;20225;-88
2021/08/01 16:34:49;;;;;;;5.40;2.30;;;;;;;24.11;42.46;97254.13;8295969;28;20235;-92
2021/08/01 16:39:14;;;;;;;5.70;3.60;;;;;;;24.14;42.00;97259.91;8293991;28;20255;-86
2021/08/01 16:43:21;;;;;;;5.27;3.20;;;;;;;23.97;42.94;97267.06;8291916;28;20208;-86
2021/08/01 16:47:42;;;;;;;7.47;2.67;;;;;;;23.98;42.56;97271.34;8290743;28;20201;-90
2021/08/01 16:51:59;;;;;;;4.80;2.27;;;;;;;23.79;43.29;97288.41;8295820;28;20198;-86
2021/08/01 16:56:07;;;;;;;5.03;2.17;;;;;;;23.75;44.33;97300.28;8261615;28;20261;-88
2021/08/01 17:00:12;;;;;;;7.93;2.33;;;;;;;23.62;44.65;97294.69;8282749;28;20265;-89
2021/08/01 17:04:16;;;;;;;5.23;2.40;;;;;;;23.61;45.11;97298.34;8276937;28;20231;-87
2021/08/01 17:08:22;;;;;;;2.00;1.80;;;;;;;23.47;44.65;97286.59;8271677;28;20270;-88
2021/08/01 17:12:26;;;;;;;3.13;1.60;;;;;;;23.46;45.36;97295.53;8276188;28;20205;-89
2021/08/01 17:16:33;;;;;;;3.17;2.00;;;;;;;23.22;44.91;97310.38;8273939;28;20223;-86
2021/08/01 17:20:37;;;;;;;4.10;2.03;;;;;;;23.14;45.43;97320.94;8282484;28;20303;-88
2021/08/01 17:24:41;;;;;;;7.60;1.93;;;;;;;23.08;45.12;97328.69;8290469;28;20253;-88
2021/08/01 17:28:50;;;;;;;6.37;1.70;;;;;;;22.78;44.16;97334.34;8290273;28;20505;-88
2021/08/01 17:32:56;;;;;;;3.60;1.60;;;;;;;22.77;43.12;97330.06;8290128;28;20204;-88
2021/08/01 17:37:00;;;;;;;2.33;1.57;;;;;;;22.86;42.58;97330.09;8288640;28;20225;-90
2021/08/01 17:41:03;;;;;;;4.07;1.47;;;;;;;22.81;43.82;97322.66;8287472;28;20207;-85
2021/08/01 17:45:08;;;;;;;3.43;1.40;;;;;;;22.78;43.62;97330.91;8271436;28;20215;-87
2021/08/01 17:49:13;;;;;;;3.97;1.60;;;;;;;22.73;44.71;97317.34;8271687;28;20220;-86
2021/08/01 17:53:19;;;;;;;4.47;1.60;;;;;;;22.71;44.67;97314.03;8268578;28;20198;-86
2021/08/01 17:57:22;;;;;;;8.23;1.67;;;;;;;22.58;45.68;97332.97;8270561;28;20416;-85
2021/08/01 18:01:26;;;;;;;2.37;1.40;;;;;;;22.63;46.53;97336.78;8269590;28;20220;-86
2021/08/01 18:05:30;;;;;;;2.10;1.30;;;;;;;22.61;46.87;97353.75;8272472;28;20226;-86
2021/08/01 18:09:38;;;;;;;1.77;1.23;;;;;;;22.56;47.02;97356.03;8270533;28;20206;-85
2021/08/01 18:13:49;;;;;;;2.37;1.20;;;;;;;22.56;46.82;97356.88;8269807;28;20229;-84
2021/08/01 18:17:54;;;;;;;7.47;1.17;;;;;;;22.53;47.13;97353.72;8270326;28;20283;-88
2021/08/01 18:22:00;;;;;;;1.87;1.07;;;;;;;22.51;47.10;97353.88;8255299;28;20325;-85
2021/08/01 18:26:03;;;;;;;4.50;1.20;;;;;;;22.53;46.36;97359.00;8254483;28;20210;-86
2021/08/01 18:30:07;;;;;;;2.43;1.20;;;;;;;22.44;46.61;97355.50;8254530;28;20213;-85
2021/08/01 18:34:16;;;;;;;1.93;1.10;;;;;;;22.30;46.78;97362.19;8255345;28;20407;-88
2021/08/01 18:38:21;;;;;;;1.30;1.00;;;;;;;22.35;46.81;97369.63;8267200;28;20212;-95
2021/08/01 18:42:26;;;;;;;5.47;1.00;;;;;;;22.17;46.61;97385.50;8292133;28;20207;-96
2021/08/01 18:46:32;;;;;;;1.10;0.90;;;;;;;22.10;46.45;97381.81;8293928;28;20202;-93
2021/08/01 18:50:41;;;;;;;3.53;1.00;;;;;;;22.13;46.09;97377.06;8290751;28;20210;-96
2021/08/01 18:54:44;;;;;;;1.37;0.83;;;;;;;21.96;46.84;97365.56;8291211;28;20233;-96
2021/08/01 18:58:47;;;;;;;3.60;1.20;;;;;;;22.01;46.39;97383.59;8290980;28;20276;-85
2021/08/01 19:02:50;;;;;;;1.87;1.20;;;;;;;21.92;46.61;97392.41;8290740;28;20203;-95
2021/08/01 19:06:55;;;;;;;1.83;1.20;;;;;;;21.75;46.99;97392.28;8289533;28;20256;-95
2021/08/01 19:10:58;;;;;;;1.17;1.07;;;;;;;21.53;46.83;97395.38;8286619;28;20229;-90
2021/08/01 19:15:01;;;;;;;2.40;1.20;;;;;;;21.39;47.51;97410.69;8286482;28;20233;-90
2021/08/01 19:19:09;;;;;;;1.20;1.10;;;;;;;21.34;48.61;97409.47;8286012;28;20202;-90
2021/08/01 19:23:16;;;;;;;3.03;1.50;;;;;;;21.15;49.39;97418.31;8285888;28;20246;-90
2021/08/01 19:27:19;;;;;;;2.13;1.17;;;;;;;21.00;49.95;97426.75;8286878;28;20549;-91
2021/08/01 19:31:32;;;;;;;2.60;1.30;;;;;;;21.12;50.31;97434.44;8291559;28;20528;-91
2021/08/01 19:35:35;;;;;;;1.93;1.50;;;;;;;21.08;50.67;97431.28;8288125;28;20230;-93
2021/08/01 19:39:40;;;;;;;3.33;2.00;;;;;;;20.86;51.57;97435.94;8281262;28;20494;-90
2021/08/01 19:43:44;;;;;;;8.03;1.97;;;;;;;20.82;52.15;97439.00;8285777;28;20244;-92
2021/08/01 19:47:47;;;;;;;2.77;2.10;;;;;;;20.90;52.12;97452.25;8282847;28;20201;-92
2021/08/01 19:51:52;;;;;;;2.93;2.03;;;;;;;20.85;52.65;97450.06;8269938;28;20271;-92